createdAt,value
2022-09-14T00:01:40.452Z,21.80
2022-09-14T00:04:16.797Z,22.10
2022-09-14T00:06:48.777Z,19.20
2022-09-14T00:09:23.274Z,19.30
2022-09-14T00:11:51.725Z,18.90
2022-09-14T00:14:20.465Z,20.10
2022-09-14T00:16:48.857Z,21.70
2022-09-14T00:19:26.358Z,22.20
2022-09-14T00:21:59.538Z,21.20
2022-09-14T00:24:34.388Z,18.90
2022-09-14T00:27:02.947Z,22.00
2022-09-14T00:29:31.083Z,23.20
2022-09-14T00:31:59.275Z,23.90
2022-09-14T00:34:27.647Z,22.10
2022-09-14T00:36:55.721Z,24.10
2022-09-14T00:39:24.630Z,21.50
2022-09-14T00:41:53.433Z,23.50
2022-09-14T00:44:24.730Z,21.80
2022-09-14T00:46:56.810Z,21.20
2022-09-14T00:49:33.105Z,21.40
2022-09-14T00:52:13.463Z,20.90
2022-09-14T00:54:57.410Z,19.70
2022-09-14T00:57:29.134Z,19.20
2022-09-14T00:59:57.564Z,24.60
2022-09-14T01:02:27.937Z,20.30
2022-09-14T01:04:55.798Z,22.50
2022-09-14T01:07:32.262Z,20.40
2022-09-14T01:10:41.019Z,20.90
2022-09-14T01:13:42.356Z,22.70
2022-09-14T01:16:26.461Z,23.60
2022-09-14T01:19:00.619Z,21.90
2022-09-14T01:21:35.851Z,23.00
2022-09-14T01:24:27.353Z,22.30
2022-09-14T01:27:01.172Z,21.00
2022-09-14T01:30:12.878Z,18.60
2022-09-14T01:32:58.330Z,17.70
2022-09-14T01:35:40.536Z,19.30
2022-09-14T01:38:41.129Z,21.50
2022-09-14T01:41:13.170Z,16.60
2022-09-14T01:43:44.681Z,19.60
2022-09-14T01:46:26.071Z,17.40
2022-09-14T01:48:59.701Z,21.60
2022-09-14T01:51:34.731Z,17.40
2022-09-14T01:54:19.758Z,17.60
2022-09-14T01:56:57.284Z,19.70
2022-09-14T01:59:33.867Z,17.00
2022-09-14T02:02:05.993Z,18.60
2022-09-14T02:05:01.453Z,22.60
2022-09-14T02:07:29.918Z,16.80
2022-09-14T02:09:57.617Z,17.40
2022-09-14T02:12:26.037Z,18.30
2022-09-14T02:14:54.456Z,18.60
2022-09-14T02:17:22.545Z,17.60
2022-09-14T02:19:56.416Z,16.60
2022-09-14T02:22:27.221Z,16.30
2022-09-14T02:24:55.832Z,18.50
2022-09-14T02:27:24.342Z,17.50
2022-09-14T02:29:52.702Z,15.90
2022-09-14T02:32:41.419Z,17.70
2022-09-14T02:35:38.457Z,18.00
2022-09-14T02:38:29.609Z,18.30
2022-09-14T02:41:04.849Z,17.90
2022-09-14T02:44:17.074Z,16.00
2022-09-14T02:47:17.652Z,15.70
2022-09-14T02:50:21.226Z,14.80
2022-09-14T02:53:00.749Z,15.90
2022-09-14T02:55:35.145Z,16.70
2022-09-14T02:58:06.838Z,19.20
2022-09-14T03:00:40.372Z,21.40
2022-09-14T03:03:10.659Z,15.60
2022-09-14T03:05:38.486Z,16.60
2022-09-14T03:08:07.094Z,16.00
2022-09-14T03:10:34.955Z,16.90
2022-09-14T03:13:02.809Z,16.20
2022-09-14T03:15:31.260Z,17.10
2022-09-14T03:17:59.364Z,14.90
2022-09-14T03:20:31.672Z,15.40
2022-09-14T03:23:00.746Z,16.60
2022-09-14T03:25:29.344Z,15.60
2022-09-14T03:27:59.816Z,18.90
2022-09-14T03:30:29.373Z,15.50
2022-09-14T03:32:59.212Z,18.20
2022-09-14T03:35:31.444Z,21.40
2022-09-14T03:38:00.129Z,12.10
2022-09-14T03:40:27.942Z,18.30
2022-09-14T03:42:57.424Z,15.40
2022-09-14T03:45:25.291Z,17.20
2022-09-14T03:47:52.976Z,14.10
2022-09-14T03:50:20.692Z,15.50
2022-09-14T03:52:48.483Z,16.60
2022-09-14T03:55:16.483Z,17.60
2022-09-14T03:57:44.168Z,14.90
2022-09-14T04:00:12.344Z,15.80
2022-09-14T04:02:41.006Z,14.00
2022-09-14T04:05:10.061Z,13.50
2022-09-14T04:07:37.890Z,12.70
2022-09-14T04:10:07.225Z,13.50
2022-09-14T04:12:38.709Z,14.00
2022-09-14T04:15:07.956Z,13.40
2022-09-14T04:17:36.075Z,12.20
2022-09-14T04:20:04.454Z,17.20
2022-09-14T04:22:33.831Z,15.70
2022-09-14T04:25:01.827Z,14.50
2022-09-14T04:27:30.996Z,16.90
2022-09-14T04:29:58.739Z,15.90
2022-09-14T04:32:28.742Z,10.60
2022-09-14T04:34:58.928Z,13.80
2022-09-14T04:37:26.586Z,13.50
2022-09-14T04:39:54.439Z,12.30
2022-09-14T04:42:22.146Z,14.60
2022-09-14T04:44:49.945Z,15.10
2022-09-14T04:47:17.853Z,13.70
2022-09-14T04:49:45.709Z,16.20
2022-09-14T04:52:13.451Z,11.70
2022-09-14T04:54:41.527Z,12.10
2022-09-14T04:57:09.274Z,14.70
2022-09-14T04:59:36.969Z,13.10
2022-09-14T05:02:05.076Z,10.30
2022-09-14T05:04:32.878Z,13.10
2022-09-14T05:07:00.586Z,13.40
2022-09-14T05:09:28.618Z,12.50
2022-09-14T05:11:56.591Z,14.00
2022-09-14T05:14:24.460Z,10.20
2022-09-14T05:16:52.205Z,13.90
2022-09-14T05:19:19.933Z,10.30
2022-09-14T05:21:47.773Z,14.20
2022-09-14T05:24:19.184Z,11.30
2022-09-14T05:26:47.763Z,10.90
2022-09-14T05:29:18.229Z,14.60
2022-09-14T05:31:46.662Z,13.70
2022-09-14T05:34:16.575Z,13.80
2022-09-14T05:36:44.359Z,10.20
2022-09-14T05:39:12.317Z,10.20
2022-09-14T05:41:40.117Z,14.40
2022-09-14T05:44:07.872Z,15.20
2022-09-14T05:46:35.788Z,11.70
2022-09-14T05:49:04.345Z,8.60
2022-09-14T05:51:32.636Z,10.80
2022-09-14T05:54:01.120Z,9.70
2022-09-14T05:56:31.897Z,12.00
2022-09-14T05:59:00.457Z,11.70
2022-09-14T06:01:32.862Z,15.30
2022-09-14T06:04:02.483Z,11.80
2022-09-14T06:06:31.994Z,11.10
2022-09-14T06:09:00.292Z,12.40
2022-09-14T06:11:33.073Z,13.90
2022-09-14T06:14:01.212Z,10.80
2022-09-14T06:16:29.873Z,11.20
2022-09-14T06:18:59.355Z,8.60
2022-09-14T06:21:31.179Z,13.00
2022-09-14T06:23:59.471Z,13.90
2022-09-14T06:26:27.201Z,13.40
2022-09-14T06:28:54.970Z,9.50
2022-09-14T06:31:22.804Z,9.20
2022-09-14T06:33:51.861Z,16.70
2022-09-14T06:36:24.964Z,10.90
2022-09-14T06:38:54.396Z,10.00
2022-09-14T06:41:30.591Z,11.40
2022-09-14T06:44:01.766Z,10.00
2022-09-14T06:46:32.910Z,12.20
2022-09-14T06:49:08.200Z,12.00
2022-09-14T06:51:45.542Z,13.90
2022-09-14T06:54:15.604Z,8.50
2022-09-14T06:56:45.008Z,14.70
2022-09-14T06:59:15.730Z,7.40
2022-09-14T07:01:45.651Z,11.20
2022-09-14T07:04:14.668Z,10.40
2022-09-14T07:06:48.740Z,9.90
2022-09-14T07:09:19.388Z,8.50
2022-09-14T07:11:47.709Z,9.20
2022-09-14T07:14:15.414Z,7.60
2022-09-14T07:16:43.082Z,19.80
2022-09-14T07:19:14.222Z,7.80
2022-09-14T07:21:44.061Z,9.30
2022-09-14T07:24:15.174Z,10.40
2022-09-14T07:26:43.659Z,14.10
2022-09-14T07:29:15.890Z,6.50
2022-09-14T07:31:52.680Z,9.30
2022-09-14T07:34:20.855Z,13.80
2022-09-14T07:36:48.683Z,8.30
2022-09-14T07:39:18.154Z,8.00
2022-09-14T07:41:46.165Z,6.40
2022-09-14T07:44:17.128Z,9.20
2022-09-14T07:46:47.002Z,10.10
2022-09-14T07:49:18.379Z,5.80
2022-09-14T07:51:46.225Z,6.10
2022-09-14T07:54:16.679Z,10.30
2022-09-14T07:56:45.988Z,11.50
2022-09-14T07:59:34.990Z,4.50
2022-09-14T08:02:04.804Z,6.90
2022-09-14T08:04:34.935Z,6.20
2022-09-14T08:07:03.205Z,6.40
2022-09-14T08:09:31.249Z,9.00
2022-09-14T08:11:59.018Z,8.10
2022-09-14T08:14:29.506Z,9.30
2022-09-14T08:16:57.545Z,10.90
2022-09-14T08:19:26.568Z,5.40
2022-09-14T08:21:54.641Z,7.80
2022-09-14T08:24:22.566Z,6.30
2022-09-14T08:26:50.692Z,7.70
2022-09-14T08:29:19.568Z,11.40
2022-09-14T08:31:48.830Z,8.30
2022-09-14T08:34:17.421Z,13.80
2022-09-14T08:36:49.646Z,8.60
2022-09-14T08:39:18.186Z,5.80
2022-09-14T08:41:46.170Z,7.60
2022-09-14T08:44:38.225Z,6.80
2022-09-14T08:47:32.300Z,4.70
2022-09-14T08:50:13.334Z,9.10
2022-09-14T08:52:47.270Z,8.90
2022-09-14T08:55:37.804Z,8.30
2022-09-14T08:58:10.900Z,7.60
2022-09-14T09:01:03.290Z,8.30
2022-09-14T09:04:15.414Z,6.50
2022-09-14T09:07:04.864Z,6.10
2022-09-14T09:09:52.404Z,7.20
2022-09-14T09:12:31.295Z,3.40
2022-09-14T09:15:01.586Z,8.30
2022-09-14T09:17:38.934Z,6.30
2022-09-14T09:20:13.975Z,6.00
2022-09-14T09:22:50.724Z,4.90
2022-09-14T09:25:25.351Z,7.60
2022-09-14T09:28:10.534Z,5.50
2022-09-14T09:30:41.547Z,8.20
2022-09-14T09:33:21.546Z,4.60
2022-09-14T09:35:51.502Z,4.70
2022-09-14T09:38:27.593Z,5.30
2022-09-14T09:41:02.195Z,5.90
2022-09-14T09:43:48.349Z,6.80
2022-09-14T09:46:17.904Z,6.10
2022-09-14T09:48:46.341Z,5.50
2022-09-14T09:51:24.303Z,8.40
2022-09-14T09:54:14.158Z,7.50
2022-09-14T09:56:59.077Z,11.70
2022-09-14T09:59:41.928Z,8.40
2022-09-14T10:02:28.191Z,8.10
2022-09-14T10:05:09.792Z,5.70
2022-09-14T10:08:09.363Z,6.30
2022-09-14T10:10:43.171Z,9.70
2022-09-14T10:13:32.023Z,5.60
2022-09-14T10:16:18.410Z,8.40
2022-09-14T10:18:52.586Z,7.80
2022-09-14T10:21:24.208Z,6.90
2022-09-14T10:24:20.640Z,9.10
2022-09-14T10:26:48.678Z,5.30
2022-09-14T10:29:56.124Z,6.90
2022-09-14T10:32:25.619Z,12.40
2022-09-14T10:34:53.541Z,5.80
2022-09-14T10:37:37.966Z,4.60
2022-09-14T10:40:17.484Z,7.40
2022-09-14T10:43:14.478Z,7.90
2022-09-14T10:45:53.014Z,7.10
2022-09-14T10:48:54.814Z,10.00
2022-09-14T10:51:58.435Z,4.60
2022-09-14T10:55:01.519Z,6.00
2022-09-14T10:58:10.795Z,7.30
2022-09-14T11:01:11.668Z,5.90
2022-09-14T11:03:56.809Z,7.40
2022-09-14T11:07:12.628Z,5.20
2022-09-14T11:10:06.573Z,8.10
2022-09-14T11:12:39.369Z,8.10
2022-09-14T11:15:35.093Z,5.90
2022-09-14T11:18:39.287Z,5.10
2022-09-14T11:21:20.703Z,6.30
2022-09-14T11:23:57.280Z,7.30
2022-09-14T11:26:42.044Z,6.20
2022-09-14T11:29:14.720Z,6.30
2022-09-14T11:32:27.925Z,7.40
2022-09-14T11:35:38.911Z,5.20
2022-09-14T11:38:23.248Z,6.80
2022-09-14T11:41:00.544Z,7.50
2022-09-14T11:43:55.243Z,7.80
2022-09-14T11:46:37.442Z,6.80
2022-09-14T11:49:14.212Z,5.90
2022-09-14T11:52:14.197Z,6.30
2022-09-14T11:54:46.846Z,5.00
2022-09-14T11:57:33.850Z,6.70
2022-09-14T12:01:22.059Z,2.60
2022-09-14T12:04:00.860Z,4.80
2022-09-14T12:06:30.739Z,5.30
2022-09-14T12:09:36.939Z,4.50
2022-09-14T12:12:07.819Z,6.80
2022-09-14T12:14:36.223Z,6.10
2022-09-14T12:17:39.826Z,5.60
2022-09-14T12:20:42.292Z,7.70
2022-09-14T12:23:27.611Z,8.00
2022-09-14T12:26:06.595Z,8.70
2022-09-14T12:28:35.098Z,9.00
2022-09-14T12:31:04.710Z,7.00
2022-09-14T12:33:31.602Z,6.80
2022-09-14T12:36:26.154Z,6.80
2022-09-14T12:38:52.950Z,7.40
2022-09-14T12:41:22.227Z,6.60
2022-09-14T12:43:48.738Z,8.20
2022-09-14T12:46:21.288Z,8.90
2022-09-14T12:48:47.779Z,6.40
2022-09-14T12:51:26.409Z,12.60
2022-09-14T12:54:04.600Z,4.00
2022-09-14T12:56:40.572Z,7.70
2022-09-14T12:59:33.198Z,7.90
2022-09-14T13:04:59.750Z,6.70
2022-09-14T13:07:33.773Z,7.10
2022-09-14T13:10:01.851Z,7.70
2022-09-14T13:12:33.348Z,6.20
2022-09-14T13:15:23.107Z,6.50
2022-09-14T13:18:26.388Z,5.00
2022-09-14T13:20:57.063Z,6.10
2022-09-14T13:23:47.164Z,5.20
2022-09-14T13:26:26.714Z,7.60
2022-09-14T13:28:55.253Z,5.40
2022-09-14T13:31:35.442Z,7.40
2022-09-14T13:34:05.144Z,9.00
2022-09-14T13:36:35.756Z,6.40
2022-09-14T13:39:03.014Z,5.40
2022-09-14T13:41:30.252Z,5.70
2022-09-14T13:43:57.714Z,6.80
2022-09-14T13:46:26.086Z,5.30
2022-09-14T13:48:53.149Z,8.30
2022-09-14T13:51:26.917Z,6.40
2022-09-14T13:53:57.070Z,5.50
2022-09-14T13:56:32.258Z,7.20
2022-09-14T13:59:18.234Z,8.00
2022-09-14T14:01:56.534Z,11.10
2022-09-14T14:04:36.492Z,5.90
2022-09-14T14:07:32.416Z,8.40
2022-09-14T14:10:00.125Z,6.80
2022-09-14T14:12:38.884Z,5.00
2022-09-14T14:15:11.825Z,6.30
2022-09-14T14:17:58.803Z,4.80
2022-09-14T14:20:31.965Z,8.70
2022-09-14T14:23:09.861Z,6.50
2022-09-14T14:25:46.948Z,10.40
2022-09-14T14:28:22.780Z,11.00
2022-09-14T14:30:50.262Z,5.30
2022-09-14T14:33:18.849Z,7.10
2022-09-14T14:35:54.158Z,7.50
2022-09-14T14:38:24.457Z,7.10
2022-09-14T14:40:54.522Z,5.80
2022-09-14T14:43:26.847Z,7.00
2022-09-14T14:45:59.841Z,5.60
2022-09-14T14:48:27.583Z,5.10
2022-09-14T14:50:54.964Z,8.10
2022-09-14T14:53:23.604Z,7.40
2022-09-14T14:55:50.292Z,8.40
2022-09-14T14:58:19.745Z,8.80
2022-09-14T15:00:47.318Z,7.30
2022-09-14T15:03:18.677Z,7.70
2022-09-14T15:05:46.645Z,8.00
2022-09-14T15:08:16.418Z,12.50
2022-09-14T15:10:43.098Z,9.00
2022-09-14T15:13:13.028Z,7.40
2022-09-14T15:15:42.218Z,10.20
2022-09-14T15:18:09.046Z,10.20
2022-09-14T15:20:37.294Z,8.00
2022-09-14T15:23:07.495Z,5.80
2022-09-14T15:25:41.602Z,10.40
2022-09-14T15:28:09.599Z,4.80
2022-09-14T15:30:37.929Z,12.80
2022-09-14T15:33:05.843Z,7.80
2022-09-14T15:35:32.439Z,9.50
2022-09-14T15:37:58.864Z,9.30
2022-09-14T15:40:37.708Z,6.80
2022-09-14T15:43:20.562Z,12.30
2022-09-14T15:45:51.465Z,11.20
2022-09-14T15:48:46.722Z,8.00
2022-09-14T15:51:40.791Z,7.40
2022-09-14T15:54:52.588Z,8.50
2022-09-14T16:06:15.076Z,12.70
2022-09-14T16:08:39.132Z,11.90
2022-09-14T16:10:49.662Z,6.50
2022-09-14T16:11:33.502Z,12.30
2022-09-14T16:14:35.433Z,12.00
2022-09-14T16:17:12.708Z,11.40
2022-09-14T16:19:44.797Z,10.60
2022-09-14T16:22:29.015Z,7.50
2022-09-14T16:28:32.603Z,9.50
2022-09-14T16:31:53.389Z,8.70
2022-09-14T16:39:45.707Z,11.80
2022-09-14T16:48:52.689Z,10.10
2022-09-14T16:51:38.289Z,11.40
2022-09-14T16:54:40.514Z,8.70
2022-09-14T17:01:11.681Z,8.80
2022-09-14T17:03:53.901Z,9.00
2022-09-14T17:07:50.451Z,9.40
2022-09-14T17:11:27.170Z,10.90
2022-09-14T17:15:00.329Z,7.70
2022-09-14T17:18:42.081Z,8.50
2022-09-14T17:30:44.553Z,9.00
2022-09-14T17:34:07.374Z,9.30
2022-09-14T17:56:16.411Z,9.70
2022-09-14T17:59:46.273Z,11.00
2022-09-14T18:03:29.665Z,17.80
2022-09-14T18:33:49.832Z,24.90
2022-09-14T18:36:15.539Z,23.60
2022-09-14T18:38:51.302Z,26.60
2022-09-14T18:41:22.749Z,23.50
2022-09-14T18:44:14.772Z,16.30
2022-09-14T18:57:18.748Z,20.50
2022-09-14T19:03:18.414Z,20.60
2022-09-14T19:06:23.056Z,21.20
2022-09-14T19:08:59.135Z,20.30
2022-09-14T19:11:37.237Z,17.00
2022-09-14T19:14:17.239Z,16.10
2022-09-14T19:17:18.008Z,13.20
2022-09-14T19:19:56.046Z,17.30
2022-09-14T19:23:03.781Z,19.90
2022-09-14T19:26:06.768Z,12.80
2022-09-14T19:29:36.925Z,14.00
2022-09-14T19:35:23.970Z,11.40
2022-09-14T19:38:30.810Z,11.70
2022-09-14T19:41:12.914Z,15.30
2022-09-14T19:44:03.710Z,9.70
2022-09-14T19:57:20.625Z,11.60
2022-09-14T19:59:48.885Z,12.10
2022-09-14T20:02:24.538Z,9.90
2022-09-14T20:04:59.401Z,15.00
2022-09-14T20:07:26.198Z,13.70
2022-09-14T20:09:52.829Z,14.10
2022-09-14T20:12:19.378Z,11.70
2022-09-14T20:14:46.010Z,11.60
2022-09-14T20:17:12.850Z,13.10
2022-09-14T20:19:39.394Z,13.40
2022-09-14T20:22:05.931Z,16.90
2022-09-14T20:24:32.396Z,12.30
2022-09-14T20:27:00.291Z,15.30
2022-09-14T20:29:30.026Z,14.70
2022-09-14T20:31:57.853Z,15.20
2022-09-14T20:34:26.721Z,15.60
2022-09-14T20:36:54.052Z,19.40
2022-09-14T20:39:24.093Z,17.50
2022-09-14T20:41:51.034Z,16.10
2022-09-14T20:44:21.729Z,15.80
2022-09-14T20:46:49.833Z,15.90
2022-09-14T20:49:20.173Z,15.20
2022-09-14T20:51:46.846Z,16.70
2022-09-14T20:54:16.750Z,18.70
2022-09-14T20:56:44.187Z,19.10
2022-09-14T20:59:14.512Z,15.20
2022-09-14T21:01:43.405Z,15.60
2022-09-14T21:04:16.931Z,17.20
2022-09-14T21:06:47.202Z,13.90
2022-09-14T21:09:15.577Z,13.50
2022-09-14T21:11:45.156Z,15.70
2022-09-14T21:14:14.296Z,15.60
2022-09-14T21:16:43.812Z,14.10
2022-09-14T21:19:16.776Z,20.70
2022-09-14T21:21:45.888Z,15.70
2022-09-14T21:24:14.161Z,18.40
2022-09-14T21:26:42.892Z,15.60
2022-09-14T21:29:20.325Z,13.00
2022-09-14T21:31:48.298Z,11.30
2022-09-14T21:34:15.619Z,14.20
2022-09-14T21:36:45.709Z,13.60
2022-09-14T21:39:16.643Z,12.90
2022-09-14T21:41:44.354Z,10.70
2022-09-14T21:44:12.560Z,16.50
2022-09-14T21:46:39.420Z,12.70
2022-09-14T21:49:05.868Z,14.10
2022-09-14T21:51:35.409Z,16.10
2022-09-14T21:54:05.583Z,12.20
2022-09-14T21:56:36.341Z,15.30
2022-09-14T21:59:07.797Z,18.80
2022-09-14T22:01:34.534Z,15.90
2022-09-14T22:04:02.390Z,14.10
2022-09-14T22:06:31.897Z,11.80
2022-09-14T22:09:00.541Z,13.70
2022-09-14T22:11:33.514Z,16.50
2022-09-14T22:14:07.119Z,10.90
2022-09-14T22:16:36.338Z,14.20
2022-09-14T22:19:11.326Z,12.50
2022-09-14T22:21:38.508Z,19.20
2022-09-14T22:24:10.166Z,18.90
2022-09-14T22:26:39.076Z,14.90
2022-09-14T22:29:08.345Z,12.00
2022-09-14T22:31:37.757Z,15.80
2022-09-14T22:34:07.164Z,12.30
2022-09-14T22:36:34.972Z,15.30
2022-09-14T22:39:02.837Z,12.20
2022-09-14T22:41:29.733Z,13.70
2022-09-14T22:43:56.430Z,15.00
2022-09-14T22:46:23.895Z,11.30
2022-09-14T22:48:51.675Z,13.10
2022-09-14T22:51:25.505Z,15.70
2022-09-14T22:53:52.607Z,14.80
2022-09-14T22:56:27.114Z,12.60
2022-09-14T22:58:54.228Z,14.50
2022-09-14T23:01:27.906Z,11.80
2022-09-14T23:04:03.334Z,12.80
2022-09-14T23:06:37.380Z,15.60
2022-09-14T23:09:23.219Z,12.40
2022-09-14T23:11:51.179Z,11.70
2022-09-14T23:14:19.074Z,12.80
2022-09-14T23:16:46.995Z,10.60
2022-09-14T23:19:18.269Z,12.10
2022-09-14T23:21:46.510Z,13.90
2022-09-14T23:24:14.629Z,10.40
2022-09-14T23:26:42.551Z,12.30
2022-09-14T23:29:16.728Z,11.40
2022-09-14T23:31:44.949Z,21.30
2022-09-14T23:34:13.498Z,13.30
2022-09-14T23:36:41.495Z,17.80
2022-09-14T23:39:09.381Z,12.50
2022-09-14T23:41:37.958Z,15.60
2022-09-14T23:44:05.716Z,15.60
2022-09-14T23:46:33.616Z,14.40
2022-09-14T23:49:01.368Z,11.90
2022-09-14T23:51:29.100Z,13.30
2022-09-14T23:53:56.861Z,14.00
2022-09-14T23:56:24.529Z,12.90
2022-09-14T23:58:52.430Z,14.40
